Time;durP1;ratioP1;P1;durP2;ratioP2;P2;SDS_P1;SDS_P2;PMS_P1;PMS_P2;Temp;Humidity;BMP_temperature;BMP_pressure;BME280_temperature;BME280_humidity;BME280_pressure;Samples;Min_cycle;Max_cycle;Signal;HPM_P1;HPM_P2
2022/09/14 00:00:49;;;;;;;4.07;1.23;;;17.80;72.00;;;;;;5054536;28;20404;-46
2022/09/14 00:03:15;;;;;;;4.65;1.02;;;17.80;71.60;;;;;;5054878;28;20127;-46
2022/09/14 00:05:41;;;;;;;4.38;1.00;;;17.80;71.90;;;;;;5053455;28;20032;-48
2022/09/14 00:08:06;;;;;;;6.68;2.55;;;17.80;72.00;;;;;;5054643;28;20092;-48
2022/09/14 00:10:32;;;;;;;10.52;1.17;;;17.80;71.80;;;;;;5053254;28;20592;-46
2022/09/14 00:12:59;;;;;;;5.88;1.05;;;17.80;71.90;;;;;;5053815;28;20029;-46
2022/09/14 00:15:25;;;;;;;5.18;1.10;;;17.80;71.90;;;;;;5054558;28;20033;-50
2022/09/14 00:17:51;;;;;;;16.23;3.80;;;17.70;71.80;;;;;;5054970;28;20040;-48
2022/09/14 00:20:16;;;;;;;6.93;1.13;;;17.70;72.00;;;;;;5054442;28;20055;-46
2022/09/14 00:22:42;;;;;;;3.97;1.00;;;17.70;71.80;;;;;;5036742;28;20495;-46
2022/09/14 00:25:08;;;;;;;4.22;1.00;;;17.70;71.70;;;;;;5054636;28;20025;-46
2022/09/14 00:27:33;;;;;;;5.68;1.20;;;17.80;71.70;;;;;;5054720;28;20025;-47
2022/09/14 00:29:59;;;;;;;4.55;1.10;;;17.80;71.70;;;;;;5054317;28;20111;-46
2022/09/14 00:32:25;;;;;;;5.32;2.05;;;17.80;71.10;;;;;;5052938;28;20032;-46
2022/09/14 00:34:50;;;;;;;3.95;1.25;;;17.80;71.20;;;;;;5054303;28;20025;-47
2022/09/14 00:37:16;;;;;;;4.43;1.15;;;17.70;70.80;;;;;;5054420;28;20032;-46
2022/09/14 00:39:42;;;;;;;3.22;0.90;;;17.60;70.90;;;;;;5054443;28;20047;-47
2022/09/14 00:42:14;;;;;;;5.32;1.45;;;17.70;70.80;;;;;;5052710;28;20098;-48
2022/09/14 00:44:40;;;;;;;6.22;1.25;;;17.60;70.60;;;;;;5054097;28;20105;-47
2022/09/14 00:47:06;;;;;;;2.55;1.05;;;17.60;70.60;;;;;;5054045;28;20021;-50
2022/09/14 00:49:40;;;;;;;5.72;1.40;;;17.50;70.20;;;;;;5054025;28;20077;-47
2022/09/14 00:52:32;;;;;;;6.47;1.83;;;17.60;69.70;;;;;;5054024;28;20028;-50
2022/09/14 00:55:02;;;;;;;6.55;1.45;;;17.70;69.70;;;;;;5054411;28;20029;-47
2022/09/14 00:57:33;;;;;;;11.05;3.03;;;17.60;69.20;;;;;;5052613;28;20021;-47
2022/09/14 00:59:58;;;;;;;;;;;17.70;69.40;;;;;;5053794;28;20059;-46
2022/09/14 01:02:26;;;;;;;7.82;1.60;;;17.70;69.10;;;;;;5053631;28;20364;-47
2022/09/14 01:04:52;;;;;;;5.82;1.95;;;17.70;68.50;;;;;;5053548;28;20025;-46
2022/09/14 01:07:51;;;;;;;6.70;1.65;;;17.60;68.30;;;;;;5054185;28;20438;-47
2022/09/14 01:10:45;;;;;;;4.65;1.00;;;17.50;68.50;;;;;;5051963;28;20075;-48
2022/09/14 01:13:29;;;;;;;2.92;0.90;;;17.50;68.40;;;;;;5053877;28;20028;-47
2022/09/14 01:16:41;;;;;;;1.67;0.68;;;17.50;68.40;;;;;;5053537;28;20082;-46
2022/09/14 01:19:19;;;;;;;2.40;1.10;;;17.50;68.60;;;;;;5050963;28;20029;-47
2022/09/14 01:21:47;;;;;;;3.35;0.75;;;17.50;68.40;;;;;;5051420;28;20513;-46
2022/09/14 01:24:27;;;;;;;3.60;1.30;;;17.50;68.70;;;;;;5052374;28;20051;-46
2022/09/14 01:27:10;;;;;;;5.28;1.38;;;17.60;68.50;;;;;;5053358;28;20025;-46
2022/09/14 01:29:48;;;;;;;7.20;1.40;;;17.60;68.30;;;;;;5053040;28;20032;-46
2022/09/14 01:32:14;;;;;;;4.47;1.30;;;17.50;68.40;;;;;;5053761;28;20025;-46
2022/09/14 01:35:06;;;;;;;6.15;1.05;;;17.50;68.40;;;;;;5053385;28;20044;-46
2022/09/14 01:37:47;;;;;;;3.63;1.08;;;17.40;68.60;;;;;;5052757;28;20071;-47
2022/09/14 01:40:36;;;;;;;5.35;1.35;;;17.40;68.80;;;;;;5052784;28;20432;-48
2022/09/14 01:43:14;;;;;;;1.98;0.75;;;17.30;69.00;;;;;;5053022;28;20021;-48
2022/09/14 01:45:47;;;;;;;4.35;0.93;;;17.30;69.30;;;;;;5052973;28;20074;-47
2022/09/14 01:48:17;;;;;;;8.93;1.75;;;17.30;69.40;;;;;;5053247;28;20493;-47
2022/09/14 01:50:52;;;;;;;5.63;1.33;;;17.30;69.40;;;;;;5052918;28;20453;-46
2022/09/14 01:53:38;;;;;;;7.07;1.20;;;17.30;69.60;;;;;;5053168;28;20033;-46
2022/09/14 01:56:19;;;;;;;4.90;1.05;;;17.30;69.50;;;;;;5053254;28;20521;-47
2022/09/14 01:58:53;;;;;;;7.70;1.92;;;17.30;69.60;;;;;;5053233;28;20029;-47
2022/09/14 02:01:26;;;;;;;7.43;1.45;;;17.30;69.50;;;;;;5053069;28;20047;-46
2022/09/14 02:03:57;;;;;;;8.50;2.38;;;17.30;69.80;;;;;;5052909;28;20509;-47
2022/09/14 02:06:38;;;;;;;6.50;1.25;;;17.30;69.70;;;;;;5052836;28;20023;-47
2022/09/14 02:09:08;;;;;;;6.63;1.13;;;17.30;69.30;;;;;;5052789;28;20029;-48
2022/09/14 02:11:33;;;;;;;6.18;1.33;;;17.30;69.70;;;;;;5052980;28;20051;-47
2022/09/14 02:13:59;;;;;;;8.32;3.10;;;17.30;69.50;;;;;;5052690;28;20475;-50
2022/09/14 02:16:26;;;;;;;4.93;0.88;;;17.30;69.60;;;;;;5052604;28;20148;-46
2022/09/14 02:18:51;;;;;;;7.22;1.70;;;17.40;69.20;;;;;;5052513;28;20112;-47
2022/09/14 02:21:25;;;;;;;6.82;1.80;;;17.30;69.10;;;;;;5053777;28;20113;-46
2022/09/14 02:23:50;;;;;;;9.35;1.10;;;17.30;69.40;;;;;;5056701;28;20025;-47
2022/09/14 02:26:18;;;;;;;5.35;1.83;;;17.30;69.40;;;;;;5056514;28;20100;-46
2022/09/14 02:28:44;;;;;;;2.53;1.08;;;17.30;69.70;;;;;;5056408;28;20085;-46
2022/09/14 02:31:21;;;;;;;4.03;1.20;;;17.30;69.80;;;;;;5055015;28;20079;-46
2022/09/14 02:34:03;;;;;;;11.43;2.08;;;17.30;69.60;;;;;;5056860;28;20043;-47
2022/09/14 02:36:47;;;;;;;4.65;1.17;;;17.30;69.70;;;;;;5056581;28;20083;-47
2022/09/14 02:39:45;;;;;;;7.65;1.25;;;17.20;69.90;;;;;;5056401;28;20032;-47
2022/09/14 02:42:26;;;;;;;5.70;1.75;;;17.30;69.80;;;;;;5056240;28;20036;-47
2022/09/14 02:45:10;;;;;;;10.05;1.20;;;17.20;70.00;;;;;;5056218;28;20499;-46
2022/09/14 02:47:54;;;;;;;2.40;0.88;;;17.20;70.10;;;;;;5056240;28;20028;-47
2022/09/14 02:50:44;;;;;;;9.73;1.75;;;17.20;70.20;;;;;;5056487;28;20079;-48
2022/09/14 02:53:39;;;;;;;10.65;2.28;;;17.30;70.10;;;;;;5056364;28;20036;-47
2022/09/14 02:56:08;;;;;;;3.53;0.70;;;17.30;70.00;;;;;;5056476;28;20041;-50
2022/09/14 02:58:36;;;;;;;5.28;1.10;;;17.30;69.80;;;;;;5055974;28;20021;-47
2022/09/14 03:01:03;;;;;;;12.68;1.67;;;17.40;69.50;;;;;;5054392;28;20069;-48
2022/09/14 03:03:29;;;;;;;5.70;1.10;;;17.30;69.90;;;;;;5056044;28;20065;-49
2022/09/14 03:05:55;;;;;;;5.40;1.40;;;17.40;69.90;;;;;;5055930;28;20045;-48
2022/09/14 03:08:22;;;;;;;5.18;0.95;;;17.30;70.10;;;;;;5055885;28;20016;-48
2022/09/14 03:10:48;;;;;;;4.00;1.00;;;17.30;70.10;;;;;;5054392;28;20024;-48
2022/09/14 03:13:13;;;;;;;13.63;2.55;;;17.20;70.40;;;;;;5055918;28;20025;-48
2022/09/14 03:15:40;;;;;;;6.50;1.30;;;17.20;70.50;;;;;;5055898;28;20424;-47
2022/09/14 03:18:06;;;;;;;7.72;1.65;;;17.20;70.70;;;;;;5055937;28;20402;-47
2022/09/14 03:20:33;;;;;;;4.75;1.15;;;17.20;70.70;;;;;;5055747;28;20040;-47
2022/09/14 03:23:00;;;;;;;3.28;1.00;;;17.20;70.80;;;;;;5055684;28;20140;-47
2022/09/14 03:25:26;;;;;;;2.05;1.02;;;17.20;71.00;;;;;;5055983;28;20489;-47
2022/09/14 03:27:54;;;;;;;5.75;1.25;;;17.20;70.90;;;;;;5056111;28;20461;-46
2022/09/14 03:30:20;;;;;;;6.50;1.50;;;17.10;71.30;;;;;;5056272;28;20029;-46
2022/09/14 03:32:47;;;;;;;6.82;2.03;;;17.00;72.00;;;;;;5056053;28;20461;-47
2022/09/14 03:35:14;;;;;;;4.18;1.35;;;17.00;72.20;;;;;;5056214;28;20036;-47
2022/09/14 03:37:42;;;;;;;10.25;1.80;;;17.00;72.50;;;;;;5055611;28;20029;-50
2022/09/14 03:40:10;;;;;;;8.30;1.27;;;17.00;72.70;;;;;;5055498;28;20021;-47
2022/09/14 03:42:40;;;;;;;6.93;1.25;;;17.00;73.70;;;;;;5056316;28;20487;-47
2022/09/14 03:45:06;;;;;;;8.23;1.40;;;16.90;74.70;;;;;;5054194;28;20025;-51
2022/09/14 03:47:32;;;;;;;6.00;1.13;;;16.80;74.50;;;;;;5055319;28;20118;-47
2022/09/14 03:49:58;;;;;;;4.78;1.15;;;16.80;74.70;;;;;;5055398;28;20031;-49
2022/09/14 03:52:23;;;;;;;6.38;1.40;;;16.70;75.50;;;;;;5055129;28;20025;-47
2022/09/14 03:54:49;;;;;;;7.05;1.88;;;16.70;75.60;;;;;;5055299;28;20462;-47
2022/09/14 03:57:15;;;;;;;4.68;1.17;;;16.60;75.90;;;;;;5054957;28;20049;-47
2022/09/14 03:59:40;;;;;;;8.50;1.48;;;16.60;76.90;;;;;;5054623;28;20045;-47
2022/09/14 04:02:06;;;;;;;4.22;1.00;;;16.60;77.00;;;;;;5054813;28;20533;-46
2022/09/14 04:04:32;;;;;;;10.43;1.55;;;16.50;77.00;;;;;;5055085;28;20086;-47
2022/09/14 04:06:57;;;;;;;4.63;1.75;;;16.50;76.60;;;;;;5055327;28;20457;-48
2022/09/14 04:09:23;;;;;;;8.05;1.42;;;16.40;77.20;;;;;;5054841;28;20465;-47
2022/09/14 04:11:48;;;;;;;4.57;1.15;;;16.40;77.40;;;;;;5054884;28;20025;-46
2022/09/14 04:14:14;;;;;;;4.88;1.15;;;16.30;77.80;;;;;;5054503;28;20079;-46
2022/09/14 04:16:40;;;;;;;3.10;1.52;;;16.20;77.80;;;;;;5054387;28;20111;-46
2022/09/14 04:19:06;;;;;;;3.22;1.02;;;16.20;78.60;;;;;;5054723;28;20021;-45
2022/09/14 04:21:32;;;;;;;4.90;1.42;;;16.20;79.20;;;;;;5054588;28;20381;-46
2022/09/14 04:23:58;;;;;;;7.90;1.42;;;16.20;79.20;;;;;;5054633;28;20362;-46
2022/09/14 04:26:26;;;;;;;4.57;1.10;;;16.20;79.30;;;;;;5054594;28;20028;-48
2022/09/14 04:28:52;;;;;;;7.10;1.33;;;16.20;79.10;;;;;;5052970;28;20473;-46
2022/09/14 04:31:18;;;;;;;4.57;3.00;;;16.30;79.20;;;;;;5054572;28;20025;-46
2022/09/14 04:33:45;;;;;;;4.90;1.15;;;16.30;79.60;;;;;;5054245;28;20492;-46
2022/09/14 04:36:13;;;;;;;4.72;1.60;;;16.20;79.20;;;;;;5054284;28;20048;-50
2022/09/14 04:38:40;;;;;;;7.03;1.38;;;16.20;79.50;;;;;;5052862;28;20476;-45
2022/09/14 04:41:12;;;;;;;8.98;1.30;;;16.10;79.60;;;;;;5054404;28;20527;-47
2022/09/14 04:43:38;;;;;;;4.97;1.52;;;16.00;79.90;;;;;;5053588;28;20532;-48
2022/09/14 04:46:11;;;;;;;8.07;2.33;;;15.90;79.90;;;;;;5053935;28;20021;-47
2022/09/14 04:48:37;;;;;;;6.40;1.00;;;16.00;80.50;;;;;;5053959;28;20067;-48
2022/09/14 04:51:12;;;;;;;5.82;1.23;;;16.00;80.70;;;;;;5054215;28;20469;-47
2022/09/14 04:53:39;;;;;;;5.30;1.48;;;15.90;80.60;;;;;;5054029;28;20524;-46
2022/09/14 04:56:07;;;;;;;7.03;2.85;;;15.90;80.80;;;;;;5053765;28;20075;-46
2022/09/14 04:58:34;;;;;;;5.68;1.40;;;15.80;81.30;;;;;;5053644;28;20031;-45
2022/09/14 05:01:01;;;;;;;5.55;1.40;;;15.80;81.80;;;;;;5053465;28;20033;-47
2022/09/14 05:03:27;;;;;;;5.65;1.25;;;15.70;82.10;;;;;;5053674;28;20087;-47
2022/09/14 05:05:52;;;;;;;8.90;1.30;;;15.70;82.40;;;;;;5053484;28;20028;-48
2022/09/14 18:05:10;;;;;;;7.65;5.53;;;14.80;90.60;;;;;;5070493;28;20798;-38
2022/09/14 18:07:36;;;;;;;14.00;7.95;;;14.80;90.70;;;;;;5070626;28;20024;-40
2022/09/14 18:10:05;;;;;;;12.80;6.65;;;14.80;90.80;;;;;;5070444;28;20459;-40
2022/09/14 18:12:35;;;;;;;16.42;6.40;;;14.80;90.80;;;;;;5075876;28;20028;-40
2022/09/14 18:15:02;;;;;;;10.27;5.87;;;14.80;90.70;;;;;;5072371;28;20032;-50
2022/09/14 18:17:28;;;;;;;11.68;7.30;;;14.80;90.70;;;;;;5072215;28;20267;-50
2022/09/14 18:19:57;;;;;;;13.63;7.57;;;14.80;90.80;;;;;;5070681;28;20469;-49
2022/09/14 18:22:26;;;;;;;11.52;6.57;;;14.80;91.00;;;;;;5071254;28;20025;-48
2022/09/14 18:24:52;;;;;;;13.43;7.90;;;14.70;91.00;;;;;;5068496;28;20167;-48
2022/09/14 18:27:18;;;;;;;13.38;7.75;;;14.70;91.10;;;;;;5070755;28;20076;-50
2022/09/14 18:29:44;;;;;;;15.68;8.32;;;14.70;91.20;;;;;;5070847;28;20458;-49
2022/09/14 18:32:09;;;;;;;15.30;7.80;;;14.60;91.30;;;;;;5069964;28;20032;-48
2022/09/14 18:34:35;;;;;;;14.10;7.30;;;14.60;91.50;;;;;;5070200;28;20155;-48
2022/09/14 18:37:01;;;;;;;13.38;8.30;;;14.60;91.50;;;;;;5070246;28;20028;-48
2022/09/14 18:39:26;;;;;;;14.90;8.43;;;14.50;91.60;;;;;;5069008;28;20029;-47
2022/09/14 18:41:53;;;;;;;14.15;8.90;;;14.60;91.90;;;;;;5070751;28;20432;-48
2022/09/14 18:44:22;;;;;;;15.18;8.80;;;14.50;91.90;;;;;;5069650;28;20052;-50
2022/09/14 18:46:49;;;;;;;15.57;8.38;;;14.50;92.00;;;;;;5070239;28;20388;-49
2022/09/14 18:49:16;;;;;;;13.55;8.02;;;14.50;92.00;;;;;;5074337;28;20024;-48
2022/09/14 18:51:43;;;;;;;17.27;11.02;;;14.50;92.00;;;;;;5072639;28;20078;-50
2022/09/14 18:54:11;;;;;;;18.77;10.50;;;14.40;92.00;;;;;;5068169;28;20366;-50
2022/09/14 18:56:38;;;;;;;12.80;8.77;;;14.40;92.00;;;;;;5068555;28;20025;-51
2022/09/14 18:59:06;;;;;;;15.70;8.35;;;14.40;91.90;;;;;;5069968;28;20035;-50
2022/09/14 19:01:33;;;;;;;14.23;8.10;;;14.40;91.90;;;;;;5069462;28;20082;-50
2022/09/14 19:04:01;;;;;;;16.83;7.90;;;14.40;91.90;;;;;;5069148;28;20404;-49
2022/09/14 19:06:27;;;;;;;17.70;8.27;;;14.30;91.70;;;;;;5070346;28;20021;-48
2022/09/14 19:08:52;;;;;;;12.40;6.95;;;14.40;91.80;;;;;;5070453;28;20112;-47
2022/09/14 19:11:25;;;;;;;13.25;7.45;;;14.30;91.50;;;;;;5070915;28;20167;-51
2022/09/14 19:14:00;;;;;;;10.65;7.63;;;14.30;91.30;;;;;;5070467;28;20392;-52
2022/09/14 19:16:27;;;;;;;16.63;6.70;;;14.30;91.10;;;;;;5058858;28;20040;-48
2022/09/14 19:18:53;;;;;;;14.30;6.40;;;14.30;91.10;;;;;;5057443;28;20469;-47
2022/09/14 19:21:25;;;;;;;11.88;7.07;;;14.30;90.80;;;;;;5057968;28;20032;-51
2022/09/14 19:24:01;;;;;;;13.73;7.20;;;14.30;90.60;;;;;;5057940;28;20029;-47
2022/09/14 19:26:30;;;;;;;14.18;7.53;;;14.30;90.50;;;;;;5057382;28;20481;-48
2022/09/14 19:29:02;;;;;;;11.95;7.55;;;14.30;90.60;;;;;;5056446;28;20048;-48
2022/09/14 19:31:29;;;;;;;12.45;6.88;;;14.30;90.70;;;;;;5055742;28;20071;-48
2022/09/14 19:33:56;;;;;;;19.80;8.88;;;14.20;90.60;;;;;;5055465;28;20492;-50
2022/09/14 19:36:22;;;;;;;16.35;7.53;;;14.20;90.80;;;;;;5055573;28;20104;-49
2022/09/14 19:38:49;;;;;;;16.85;7.90;;;14.30;90.70;;;;;;5055724;28;20442;-48
2022/09/14 19:41:16;;;;;;;14.07;7.20;;;14.20;90.70;;;;;;5055717;28;20037;-48
2022/09/14 19:43:42;;;;;;;12.50;7.97;;;14.20;90.90;;;;;;5055616;28;20073;-48
2022/09/14 19:46:11;;;;;;;14.13;8.35;;;14.20;90.90;;;;;;5056021;28;20029;-49
2022/09/14 19:48:37;;;;;;;21.08;8.18;;;14.20;91.00;;;;;;5056305;28;20472;-49
2022/09/14 19:51:06;;;;;;;15.13;8.45;;;14.20;91.10;;;;;;5055677;28;20070;-51
2022/09/14 19:53:36;;;;;;;14.02;7.43;;;14.20;91.20;;;;;;5055428;28;20028;-49
2022/09/14 19:56:04;;;;;;;13.27;9.15;;;14.20;91.30;;;;;;5056168;28;20029;-47
2022/09/14 19:58:37;;;;;;;13.57;8.57;;;14.10;91.50;;;;;;5055339;28;20032;-47
2022/09/14 20:01:04;;;;;;;12.80;8.95;;;14.00;91.70;;;;;;5055735;28;20377;-51
2022/09/14 20:03:31;;;;;;;15.15;9.10;;;14.10;91.80;;;;;;5054794;28;20044;-49
2022/09/14 20:06:03;;;;;;;19.20;10.60;;;14.00;91.90;;;;;;5055091;28;20381;-49
2022/09/14 20:08:30;;;;;;;17.60;8.27;;;14.00;92.00;;;;;;5055303;28;20020;-48
2022/09/14 20:11:01;;;;;;;20.02;8.65;;;13.90;92.10;;;;;;5057661;28;20036;-49
2022/09/14 20:13:27;;;;;;;12.98;8.60;;;13.90;92.10;;;;;;5057833;28;20369;-49
2022/09/14 20:15:52;;;;;;;18.20;8.27;;;13.80;92.20;;;;;;5057219;28;20021;-49
2022/09/14 20:18:18;;;;;;;17.08;9.02;;;13.80;92.50;;;;;;5056059;28;20033;-48
2022/09/14 20:20:44;;;;;;;18.27;8.75;;;13.80;92.60;;;;;;5055987;28;20381;-48
2022/09/14 20:23:09;;;;;;;17.55;10.32;;;13.70;92.60;;;;;;5055913;28;20029;-49
2022/09/14 20:25:35;;;;;;;15.57;9.07;;;13.70;92.70;;;;;;5055009;28;20025;-48
2022/09/14 20:28:01;;;;;;;15.90;9.95;;;13.70;92.90;;;;;;5052479;28;20045;-49
2022/09/14 20:30:27;;;;;;;14.25;9.65;;;13.70;93.00;;;;;;5054588;28;20111;-47
2022/09/14 20:32:52;;;;;;;19.85;12.18;;;13.70;93.10;;;;;;5055073;28;20381;-51
2022/09/14 20:35:18;;;;;;;21.23;12.13;;;13.70;93.20;;;;;;5054759;28;20067;-47
2022/09/14 20:37:43;;;;;;;20.35;11.45;;;13.70;93.20;;;;;;5055136;28;20461;-48
2022/09/14 20:40:09;;;;;;;17.05;10.05;;;13.70;93.20;;;;;;5054566;28;20028;-48
2022/09/14 20:42:35;;;;;;;14.15;9.00;;;13.60;93.20;;;;;;5054506;28;20472;-39
2022/09/14 20:45:01;;;;;;;17.95;10.18;;;13.50;93.20;;;;;;5054602;28;20031;-39
2022/09/14 20:47:27;;;;;;;16.15;10.23;;;13.50;93.20;;;;;;5055240;28;20029;-39
2022/09/14 20:49:52;;;;;;;20.90;10.32;;;13.50;93.20;;;;;;5053356;28;20029;-38
2022/09/14 20:52:19;;;;;;;14.98;10.52;;;13.40;93.30;;;;;;5054207;28;20029;-39
2022/09/14 20:54:45;;;;;;;16.23;11.43;;;13.40;93.30;;;;;;5052619;28;20384;-38
2022/09/14 20:57:11;;;;;;;14.20;9.77;;;13.40;93.50;;;;;;5054753;28;20028;-39
2022/09/14 20:59:36;;;;;;;14.98;10.20;;;13.40;93.40;;;;;;5052757;28;20503;-38
2022/09/14 21:02:02;;;;;;;18.13;11.93;;;13.40;93.50;;;;;;5054116;28;20358;-38
2022/09/14 21:04:28;;;;;;;17.10;10.45;;;13.40;93.60;;;;;;5053623;28;20045;-38
2022/09/14 21:06:54;;;;;;;25.85;9.98;;;13.40;93.60;;;;;;5054469;28;20027;-40
2022/09/14 21:09:23;;;;;;;16.88;10.63;;;13.40;93.60;;;;;;5052778;28;20028;-39
2022/09/14 21:11:49;;;;;;;15.60;10.88;;;13.40;93.60;;;;;;5053961;28;20017;-40
2022/09/14 21:14:16;;;;;;;21.35;12.48;;;13.50;93.60;;;;;;5053944;28;20496;-39
2022/09/14 21:16:45;;;;;;;18.83;11.15;;;13.50;93.60;;;;;;5054428;28;20040;-38
2022/09/14 21:19:18;;;;;;;14.55;9.70;;;13.40;93.50;;;;;;5052585;28;20396;-39
2022/09/14 21:21:47;;;;;;;17.98;11.00;;;13.50;93.50;;;;;;5052602;28;20024;-40
2022/09/14 21:24:14;;;;;;;18.40;10.80;;;13.50;93.40;;;;;;5053756;28;20031;-39
2022/09/14 21:26:41;;;;;;;14.25;8.98;;;13.50;93.30;;;;;;5053589;28;20074;-38
2022/09/14 21:29:10;;;;;;;18.38;9.50;;;13.50;93.30;;;;;;5052253;28;20029;-38
2022/09/14 21:31:36;;;;;;;18.10;10.23;;;13.60;93.30;;;;;;5053780;28;20032;-40
2022/09/14 21:34:05;;;;;;;22.98;10.63;;;13.60;93.20;;;;;;5053853;28;20064;-39
2022/09/14 21:36:38;;;;;;;18.77;11.55;;;13.80;93.30;;;;;;5053292;28;20033;-38
2022/09/14 21:39:11;;;;;;;16.98;10.60;;;13.80;93.20;;;;;;5052823;28;20020;-40
2022/09/14 21:41:38;;;;;;;15.93;9.68;;;13.90;93.10;;;;;;5052993;28;20078;-38
2022/09/14 21:44:04;;;;;;;13.88;9.75;;;14.00;92.90;;;;;;5052927;28;20021;-42
2022/09/14 21:46:30;;;;;;;21.58;10.43;;;14.10;92.70;;;;;;5052849;28;20075;-39
2022/09/14 21:48:56;;;;;;;17.52;10.38;;;14.10;92.50;;;;;;5053090;28;20018;-39
2022/09/14 21:51:31;;;;;;;17.70;10.88;;;14.10;92.50;;;;;;5051760;28;20064;-38
2022/09/14 21:53:59;;;;;;;19.23;11.02;;;14.20;92.40;;;;;;5053075;28;20473;-39
2022/09/14 21:56:28;;;;;;;20.33;11.07;;;14.30;92.40;;;;;;5051589;28;20024;-38
2022/09/14 21:58:58;;;;;;;17.20;11.13;;;14.30;92.30;;;;;;5051920;28;20025;-38
2022/09/14 22:01:25;;;;;;;20.27;13.57;;;14.40;92.20;;;;;;5052998;28;20393;-40
2022/09/14 22:03:52;;;;;;;19.23;11.52;;;14.50;91.90;;;;;;5052580;28;20588;-39
2022/09/14 22:06:21;;;;;;;19.38;12.98;;;14.50;91.80;;;;;;5052996;28;20087;-39
2022/09/14 22:08:47;;;;;;;20.13;13.73;;;14.50;91.80;;;;;;5053353;28;20556;-39
2022/09/14 22:11:25;;;;;;;27.35;12.73;;;14.50;91.70;;;;;;5053419;28;20479;-38
2022/09/14 22:13:53;;;;;;;25.27;13.93;;;14.50;91.60;;;;;;5053241;28;20078;-38
2022/09/14 22:16:19;;;;;;;24.40;13.27;;;14.50;91.60;;;;;;5053229;28;20029;-39
2022/09/14 22:18:50;;;;;;;23.23;13.15;;;14.50;91.70;;;;;;5053480;28;20370;-38
2022/09/14 22:21:16;;;;;;;26.25;14.13;;;14.40;91.60;;;;;;5053090;28;20021;-39
2022/09/14 22:23:46;;;;;;;31.20;14.45;;;14.40;91.60;;;;;;5053430;28;20043;-38
2022/09/14 22:26:12;;;;;;;20.15;12.77;;;14.40;91.60;;;;;;5053256;28;20025;-39
2022/09/14 22:28:39;;;;;;;22.05;13.93;;;14.40;91.70;;;;;;5051957;28;20531;-39
2022/09/14 22:31:06;;;;;;;26.77;15.45;;;14.40;91.60;;;;;;5052908;28;20021;-40
2022/09/14 22:33:32;;;;;;;26.27;13.18;;;14.40;91.80;;;;;;5052910;28;20040;-38
2022/09/14 22:36:00;;;;;;;27.63;15.05;;;14.50;91.60;;;;;;5052597;28;20127;-40
2022/09/14 22:38:29;;;;;;;24.92;15.75;;;14.40;91.40;;;;;;5051336;28;20476;-38
2022/09/14 22:40:58;;;;;;;34.00;15.75;;;14.40;91.50;;;;;;5053398;28;20021;-39
2022/09/14 22:43:25;;;;;;;25.58;15.57;;;14.40;91.40;;;;;;5052928;28;20047;-41
2022/09/14 22:45:51;;;;;;;25.55;16.38;;;14.40;91.40;;;;;;5052767;28;20481;-41
2022/09/14 22:48:17;;;;;;;25.08;14.32;;;14.40;91.60;;;;;;5052871;28;20024;-39
2022/09/14 22:50:44;;;;;;;23.30;14.20;;;14.30;91.50;;;;;;5054464;28;20503;-38
2022/09/14 22:53:10;;;;;;;23.98;14.52;;;14.30;91.70;;;;;;5056571;28;20017;-40
2022/09/14 22:55:36;;;;;;;29.27;16.25;;;14.30;91.70;;;;;;5056214;28;20423;-39
2022/09/14 22:58:02;;;;;;;26.80;15.45;;;14.30;91.70;;;;;;5056350;28;20120;-40
2022/09/14 23:00:28;;;;;;;26.65;16.10;;;14.30;91.70;;;;;;5056004;28;20528;-40
2022/09/14 23:02:54;;;;;;;29.55;16.83;;;14.30;91.70;;;;;;5056372;28;20025;-38
2022/09/14 23:05:20;;;;;;;30.02;14.70;;;14.30;91.90;;;;;;5056065;28;20021;-39
2022/09/14 23:07:45;;;;;;;31.02;15.73;;;14.30;92.00;;;;;;5056123;28;20074;-39
2022/09/14 23:10:12;;;;;;;27.73;15.00;;;14.20;92.20;;;;;;5056230;28;20496;-39
2022/09/14 23:12:37;;;;;;;28.80;15.30;;;14.20;92.20;;;;;;5055803;28;20091;-43
2022/09/14 23:15:03;;;;;;;30.30;16.67;;;14.20;92.40;;;;;;5055832;28;20025;-39
2022/09/14 23:17:29;;;;;;;27.38;17.63;;;14.20;92.70;;;;;;5055235;28;20052;-38
2022/09/14 23:19:54;;;;;;;35.67;17.90;;;14.10;92.70;;;;;;5055876;28;20428;-40
2022/09/14 23:22:20;;;;;;;28.80;16.05;;;14.10;92.70;;;;;;5055687;28;20033;-38
2022/09/14 23:24:46;;;;;;;28.38;15.95;;;14.20;92.80;;;;;;5056026;28;20032;-40
2022/09/14 23:27:12;;;;;;;30.92;15.82;;;14.10;92.80;;;;;;5056030;28;20414;-40
2022/09/14 23:29:38;;;;;;;35.63;16.70;;;14.20;92.70;;;;;;5057468;28;20017;-40
2022/09/14 23:32:07;;;;;;;35.88;15.82;;;14.20;92.60;;;;;;5057226;28;20471;-39
2022/09/14 23:34:33;;;;;;;28.70;15.80;;;14.20;92.50;;;;;;5059352;28;20037;-40
2022/09/14 23:37:02;;;;;;;29.40;16.10;;;14.20;92.40;;;;;;5058901;28;20086;-39
2022/09/14 23:39:28;;;;;;;32.70;16.13;;;14.20;92.30;;;;;;5057871;28;20480;-39
2022/09/14 23:41:54;;;;;;;24.15;14.48;;;14.20;92.20;;;;;;5054184;28;20035;-39
2022/09/14 23:44:19;;;;;;;22.63;14.50;;;14.20;91.90;;;;;;5055621;28;20053;-39
2022/09/14 23:46:45;;;;;;;29.15;16.30;;;14.20;91.90;;;;;;5055272;28;20017;-39
2022/09/14 23:49:12;;;;;;;23.83;13.18;;;14.20;91.80;;;;;;5057853;28;20079;-39
2022/09/14 23:51:42;;;;;;;29.17;15.43;;;14.20;91.90;;;;;;5055022;28;20025;-39
2022/09/14 23:54:08;;;;;;;28.20;14.07;;;14.20;91.80;;;;;;5054816;28;20472;-39
2022/09/14 23:56:37;;;;;;;27.63;14.18;;;14.10;91.70;;;;;;5055006;28;20040;-39
2022/09/14 23:59:03;;;;;;;22.83;13.98;;;14.10;91.90;;;;;;5054686;28;20029;-39
